| time (UTC) | temp F | wind direction | speed knots | gust knots | rain 1hr in | rain 24hr in | rain mn in | humidity % | barometer mb |
| 20260505164538 | 37 | 338 | 1.7 | 5.2 | 0.01 | 0.02 | 0.02 | 70 | 1010.1 |
| 20260505163037 | 37 | 338 | 1.7 | 5.2 | 0.01 | 0.02 | 0.02 | 70 | 1010.2 |
| 20260505161518 | 36 | 0.0 | 1.7 | 0.00 | 0.01 | 0.01 | 70 | 1010.2 | |
| 20260505153017 | 36 | 338 | 1.7 | 4.3 | 0.00 | 0.01 | 0.01 | 70 | 1010.1 |
| 20260505151517 | 35 | 338 | 2.6 | 4.3 | 0.00 | 0.01 | 0.01 | 71 | 1010.1 |
| 20260505124517 | 34 | 338 | 4.3 | 7.8 | 0.00 | 0.01 | 0.01 | 70 | 1010.4 |
| 20260505123017 | 35 | 338 | 4.3 | 8.7 | 0.00 | 0.01 | 0.01 | 70 | 1009.9 |
| 20260505121517 | 35 | 338 | 4.3 | 9.6 | 0.00 | 0.01 | 0.01 | 70 | 1010.4 |
| 20260505120017 | 35 | 338 | 3.5 | 9.6 | 0.00 | 0.01 | 0.01 | 70 | 1010.0 |
| 20260505114517 | 36 | 338 | 4.3 | 12.2 | 0.00 | 0.01 | 0.01 | 69 | 1010.0 |
| 20260505113037 | 36 | 338 | 5.2 | 11.3 | 0.00 | 0.01 | 0.01 | 69 | 1010.3 |
| 20260505111517 | 38 | 315 | 5.2 | 12.2 | 0.00 | 0.01 | 0.01 | 69 | 1010.3 |
| 20260505101517 | 40 | 338 | 5.2 | 13.9 | 0.00 | 0.01 | 0.01 | 68 | 1010.1 |
| 20260505100017 | 41 | 315 | 4.3 | 13.0 | 0.00 | 0.01 | 0.01 | 67 | 1010.3 |
| 20260505094517 | 41 | 0 | 4.3 | 12.2 | 0.00 | 0.01 | 0.01 | 67 | 1010.1 |
| 20260505093017 | 42 | 315 | 5.2 | 13.9 | 0.00 | 0.01 | 0.01 | 67 | 1011.0 |
| 20260505091516 | 42 | 315 | 4.3 | 11.3 | 0.00 | 0.01 | 0.01 | 67 | 1010.7 |
| 20260505090016 | 42 | 315 | 5.2 | 10.4 | 0.00 | 0.01 | 0.01 | 66 | 1010.5 |
| 20260505084537 | 43 | 338 | 5.2 | 12.2 | 0.00 | 0.01 | 0.01 | 66 | 1010.6 |
| 20260505083017 | 43 | 338 | 4.3 | 11.3 | 0.00 | 0.01 | 0.01 | 66 | 1010.0 |
| 20260505081518 | 45 | 315 | 4.3 | 13.0 | 0.00 | 0.01 | 0.01 | 65 | 1010.3 |
| 20260505080017 | 47 | 0.0 | 4.3 | 0.00 | 0.01 | 0.01 | 64 | 1010.5 | |
| 20260505074517 | 47 | 0.0 | 0.0 | 0.00 | 0.01 | 0.01 | 64 | 1010.5 | |
| 20260505073017 | 47 | 0.0 | 0.0 | 0.00 | 0.01 | 0.01 | 64 | 1011.6 | |
| 20260505071516 | 47 | 0.0 | 0.0 | 0.01 | 0.01 | 0.01 | 64 | 1011.6 | |
| 20260505070017 | 47 | 0.0 | 0.0 | 0.01 | 0.01 | 0.01 | 64 | 1011.4 | |
| 20260505064516 | 47 | 0.0 | 0.0 | 0.01 | 0.01 | 0.01 | 64 | 1011.5 | |
| 20260505063016 | 47 | 0.0 | 1.7 | 0.01 | 0.01 | 0.01 | 64 | 1011.5 | |
| 20260505061516 | 47 | 0.0 | 2.6 | 0.00 | 0.00 | 0.00 | 64 | 1011.5 | |
| 20260505060056 | 47 | 0.0 | 2.6 | 0.00 | 0.00 | 0.00 | 64 | 1011.6 | |
| 20260505054538 | 46 | 0.0 | 2.6 | 0.00 | 0.00 | 0.00 | 64 | 1011.6 | |
| 20260505053019 | 46 | 0.0 | 1.7 | 0.00 | 0.00 | 0.00 | 64 | 1010.8 | |
| 20260505051518 | 47 | 0.0 | 1.7 | 0.00 | 0.00 | 0.00 | 64 | 1010.9 | |
| 20260505041518 | 48 | 0.0 | 2.6 | 0.00 | 0.00 | 0.00 | 64 | 1011.5 | |
| 20260505040018 | 48 | 293 | 0.9 | 4.3 | 0.00 | 0.00 | 0.00 | 63 | 1010.7 |
| 20260505034518 | 48 | 0.0 | 2.6 | 0.00 | 0.00 | 0.00 | 63 | 1010.8 | |
| 20260505033018 | 49 | 293 | 0.9 | 3.5 | 0.00 | 0.00 | 0.00 | 63 | 1010.7 |
| 20260505031518 | 49 | 315 | 2.6 | 8.7 | 0.00 | 0.00 | 0.00 | 63 | 1010.3 |
| 20260505030018 | 50 | 315 | 3.5 | 8.7 | 0.00 | 0.00 | 0.00 | 63 | 1009.1 |
| 20260505024518 | 51 | 315 | 3.5 | 7.8 | 0.00 | 0.00 | 0.00 | 63 | 1008.9 |
| 20260505023018 | 52 | 338 | 3.5 | 7.8 | 0.00 | 0.00 | 0.00 | 62 | 1008.0 |
| 20260505021537 | 52 | 315 | 4.3 | 9.6 | 0.00 | 0.00 | 0.00 | 62 | 1007.9 |
| 20260505020018 | 52 | 315 | 5.2 | 11.3 | 0.00 | 0.00 | 0.00 | 61 | 1007.7 |
| 20260505014538 | 56 | 0 | 2.6 | 11.3 | 0.00 | 0.00 | 0.00 | 58 | 1008.1 |
| 20260505013018 | 56 | 0 | 0.9 | 4.3 | 0.00 | 0.00 | 0.00 | 56 | 1006.7 |
| 20260505011517 | 57 | 315 | 0.9 | 2.6 | 0.00 | 0.00 | 0.00 | 55 | 1007.1 |
| 20260505010018 | 58 | 315 | 1.7 | 5.2 | 0.00 | 0.00 | 0.00 | 53 | 1006.5 |
| 20260505004517 | 58 | 0.0 | 4.3 | 0.00 | 0.00 | 0.00 | 51 | 1006.9 | |
| 20260505003018 | 58 | 293 | 1.7 | 5.2 | 0.00 | 0.00 | 0.00 | 49 | 1006.3 |
| 20260505001518 | 59 | 315 | 4.3 | 8.7 | 0.00 | 0.00 | 0.00 | 46 | 1006.4 |
| 20260505000018 | 59 | 315 | 4.3 | 8.7 | 0.00 | 0.00 | 0.00 | 44 | 1005.8 |
| 20260504234518 | 60 | 315 | 5.2 | 10.4 | 0.00 | 0.00 | 0.00 | 44 | 1006.0 |
| 20260504233019 | 60 | 315 | 5.2 | 12.2 | 0.00 | 0.00 | 0.00 | 44 | 1005.5 |
| 20260504231518 | 60 | 315 | 4.3 | 10.4 | 0.00 | 0.00 | 0.00 | 45 | 1005.2 |
| 20260504230017 | 61 | 315 | 6.1 | 12.2 | 0.00 | 0.00 | 0.00 | 43 | 1005.1 |
| 20260504224517 | 61 | 293 | 6.1 | 11.3 | 0.00 | 0.00 | 0.00 | 41 | 1005.5 |
| 20260504223017 | 61 | 315 | 5.2 | 13.9 | 0.00 | 0.00 | 0.00 | 39 | 1005.4 |
| 20260504221517 | 62 | 338 | 5.2 | 13.0 | 0.00 | 0.00 | 0.00 | 39 | 1005.3 |
| 20260504220017 | 63 | 315 | 6.1 | 16.5 | 0.00 | 0.00 | 0.00 | 37 | 1004.9 |
| 20260504214517 | 64 | 338 | 7.0 | 19.1 | 0.00 | 0.00 | 0.00 | 36 | 1004.8 |
| 20260504213017 | 65 | 315 | 6.1 | 13.9 | 0.00 | 0.00 | 0.00 | 35 | 1005.0 |
| 20260504211518 | 69 | 68 | 3.5 | 12.2 | 0.00 | 0.00 | 0.00 | 28 | 1006.0 |
| 20260504210017 | 68 | 135 | 2.6 | 10.4 | 0.00 | 0.00 | 0.00 | 28 | 1005.8 |
| 20260504204517 | 67 | 158 | 1.7 | 6.1 | 0.00 | 0.00 | 0.00 | 30 | 1006.0 |
| 20260504203017 | 65 | 158 | 3.5 | 11.3 | 0.00 | 0.00 | 0.00 | 32 | 1005.8 |
| 20260504201537 | 63 | 203 | 2.6 | 8.7 | 0.00 | 0.00 | 0.00 | 33 | 1005.8 |
| 20260504200017 | 62 | 225 | 3.5 | 18.2 | 0.00 | 0.00 | 0.00 | 38 | 1006.5 |
| 20260504194517 | 65 | 225 | 3.5 | 12.2 | 0.00 | 0.00 | 0.00 | 35 | 1006.8 |
| 20260504193017 | 68 | 135 | 0.9 | 5.2 | 0.00 | 0.00 | 0.00 | 24 | 1007.1 |
| 20260504191518 | 69 | 293 | 2.6 | 9.6 | 0.00 | 0.00 | 0.00 | 25 | 1007.3 |
| 20260504190017 | 69 | 23 | 2.6 | 7.0 | 0.00 | 0.00 | 0.00 | 24 | 1007.2 |
| 20260504184517 | 69 | 293 | 3.5 | 9.6 | 0.00 | 0.00 | 0.00 | 26 | 1007.4 |
| 20260504183037 | 69 | 315 | 5.2 | 12.2 | 0.00 | 0.00 | 0.00 | 26 | 1007.8 |
| 20260504181517 | 69 | 315 | 7.0 | 14.8 | 0.00 | 0.00 | 0.00 | 28 | 1008.0 |
| 20260504180017 | 70 | 315 | 7.8 | 13.9 | 0.00 | 0.00 | 0.00 | 28 | 1008.8 |
| 20260504174517 | 70 | 315 | 7.0 | 15.6 | 0.00 | 0.00 | 0.00 | 28 | 1009.1 |
| 20260504173017 | 69 | 315 | 7.8 | 13.0 | 0.00 | 0.00 | 0.00 | 30 | 1008.8 |
| 20260504171517 | 69 | 315 | 7.0 | 15.6 | 0.00 | 0.00 | 0.00 | 30 | 1009.2 |